createdAt,value
2022-08-19T00:01:34.042Z,20.00
2022-08-19T00:04:07.664Z,19.90
2022-08-19T00:06:36.290Z,20.00
2022-08-19T00:09:05.221Z,20.00
2022-08-19T00:11:32.428Z,20.10
2022-08-19T00:13:59.928Z,20.00
2022-08-19T00:16:27.516Z,20.00
2022-08-19T00:18:57.464Z,20.10
2022-08-19T00:21:25.767Z,20.00
2022-08-19T00:23:52.768Z,20.00
2022-08-19T00:26:19.787Z,20.00
2022-08-19T00:28:47.875Z,20.00
2022-08-19T00:31:14.690Z,20.10
2022-08-19T00:33:41.766Z,20.10
2022-08-19T00:36:10.414Z,20.10
2022-08-19T00:38:39.308Z,20.20
2022-08-19T00:41:07.203Z,20.10
2022-08-19T00:43:34.510Z,20.10
2022-08-19T00:46:03.791Z,20.20
2022-08-19T00:48:30.769Z,20.10
2022-08-19T00:50:57.845Z,20.00
2022-08-19T00:53:29.235Z,20.00
2022-08-19T00:56:00.404Z,19.90
2022-08-19T00:58:31.844Z,19.90
2022-08-19T01:00:58.955Z,19.90
2022-08-19T01:03:25.972Z,19.90
2022-08-19T01:05:53.311Z,19.90
2022-08-19T01:08:21.439Z,19.90
2022-08-19T01:10:56.564Z,19.90
2022-08-19T01:13:26.616Z,19.90
2022-08-19T01:16:03.413Z,19.90
2022-08-19T01:18:32.011Z,20.00
2022-08-19T01:21:03.463Z,19.90
2022-08-19T01:23:43.598Z,19.90
2022-08-19T01:26:17.649Z,19.80
2022-08-19T01:28:47.676Z,19.80
2022-08-19T01:31:26.856Z,19.80
2022-08-19T01:33:58.414Z,19.70
2022-08-19T01:36:30.075Z,19.70
2022-08-19T01:38:57.804Z,19.60
2022-08-19T01:41:24.869Z,19.70
2022-08-19T01:44:03.818Z,19.70
2022-08-19T01:46:42.193Z,19.70
2022-08-19T01:49:09.518Z,19.60
2022-08-19T01:51:39.803Z,19.60
2022-08-19T01:54:07.833Z,19.60
2022-08-19T01:56:34.775Z,19.50
2022-08-19T01:59:05.634Z,19.40
2022-08-19T02:01:33.778Z,19.40
2022-08-19T02:04:01.770Z,19.40
2022-08-19T02:06:29.722Z,19.40
2022-08-19T02:08:57.358Z,19.40
2022-08-19T02:11:34.547Z,19.50
2022-08-19T02:14:04.055Z,19.40
2022-08-19T02:16:31.582Z,19.30
2022-08-19T02:19:01.590Z,19.30
2022-08-19T02:21:29.600Z,19.20
2022-08-19T02:23:57.131Z,19.10
2022-08-19T02:26:24.521Z,19.20
2022-08-19T02:28:51.448Z,19.20
2022-08-19T02:31:20.775Z,19.10
2022-08-19T02:33:48.464Z,19.20
2022-08-19T02:36:16.686Z,19.20
2022-08-19T02:38:54.513Z,19.20
2022-08-19T02:41:27.268Z,19.20
2022-08-19T02:44:26.497Z,19.20
2022-08-19T02:46:48.350Z,19.20
2022-08-19T02:49:17.412Z,19.20
2022-08-19T02:51:46.631Z,19.20
2022-08-19T02:54:14.089Z,19.20
2022-08-19T02:56:42.161Z,19.10
2022-08-19T02:59:12.024Z,19.10
2022-08-19T03:01:41.627Z,19.00
2022-08-19T03:04:11.328Z,19.00
2022-08-19T03:06:39.998Z,19.00
2022-08-19T03:09:06.764Z,19.00
2022-08-19T03:11:34.722Z,19.00
2022-08-19T03:14:03.511Z,19.00
2022-08-19T03:16:33.761Z,19.00
2022-08-19T03:19:02.190Z,19.00
2022-08-19T03:21:31.956Z,19.00
2022-08-19T03:24:01.933Z,19.00
2022-08-19T03:26:28.917Z,19.00
2022-08-19T03:28:58.519Z,19.00
2022-08-19T03:31:44.283Z,18.90
2022-08-19T03:34:19.135Z,18.90
2022-08-19T03:36:46.477Z,19.00
2022-08-19T03:39:13.790Z,18.90
2022-08-19T03:41:44.562Z,18.90
2022-08-19T03:44:16.836Z,18.90
2022-08-19T03:46:46.974Z,18.90
2022-08-19T03:49:14.540Z,18.90
2022-08-19T03:51:42.960Z,18.90
2022-08-19T03:54:12.417Z,19.00
2022-08-19T03:56:41.103Z,18.90
2022-08-19T03:59:14.487Z,18.80
2022-08-19T04:01:42.025Z,18.80
2022-08-19T04:04:09.535Z,18.80
2022-08-19T04:06:39.959Z,18.80
2022-08-19T04:09:10.576Z,18.80
2022-08-19T04:11:44.553Z,18.80
2022-08-19T04:14:20.798Z,18.90
2022-08-19T04:16:49.172Z,18.80
2022-08-19T04:19:17.627Z,18.80
2022-08-19T04:21:46.610Z,18.90
2022-08-19T04:24:14.210Z,18.90
2022-08-19T04:26:41.209Z,18.80
2022-08-19T04:29:22.798Z,18.80
2022-08-19T04:31:50.175Z,18.90
2022-08-19T04:34:23.210Z,18.90
2022-08-19T04:36:51.995Z,18.90
2022-08-19T04:39:22.549Z,18.90
2022-08-19T04:42:07.961Z,18.80
2022-08-19T04:44:36.497Z,18.90
2022-08-19T04:47:11.969Z,18.80
2022-08-19T04:49:39.709Z,18.80
2022-08-19T04:52:06.685Z,18.80
2022-08-19T04:54:38.868Z,18.80
2022-08-19T04:57:09.710Z,18.80
2022-08-19T04:59:38.053Z,18.90
2022-08-19T05:02:05.387Z,18.90
2022-08-19T05:04:33.132Z,18.70
2022-08-19T05:07:02.082Z,18.70
2022-08-19T05:09:36.115Z,18.70
2022-08-19T05:12:18.564Z,18.60
2022-08-19T05:14:47.079Z,18.60
2022-08-19T05:17:33.531Z,18.60
2022-08-19T05:20:20.584Z,18.60
2022-08-19T05:22:48.460Z,18.50
2022-08-19T05:25:20.087Z,18.60
2022-08-19T05:27:48.328Z,18.70
2022-08-19T05:30:15.896Z,18.70
2022-08-19T05:32:42.919Z,18.70
2022-08-19T05:35:10.566Z,18.70
2022-08-19T05:37:37.845Z,18.70
2022-08-19T05:40:05.843Z,18.80
2022-08-19T05:42:33.083Z,18.90
2022-08-19T05:44:59.982Z,18.90
2022-08-19T05:47:26.785Z,19.00
2022-08-19T05:49:53.674Z,18.90
2022-08-19T05:52:25.839Z,19.00
2022-08-19T05:54:56.925Z,19.00
2022-08-19T05:57:25.485Z,19.10
2022-08-19T05:59:58.637Z,19.10
2022-08-19T06:02:31.773Z,19.00
2022-08-19T06:04:58.863Z,19.10
2022-08-19T06:07:25.940Z,19.20
2022-08-19T06:09:56.058Z,19.20
2022-08-19T06:12:33.856Z,19.20
2022-08-19T06:15:02.197Z,19.20
2022-08-19T06:17:32.709Z,19.20
2022-08-19T06:20:00.196Z,19.20
2022-08-19T06:22:28.515Z,19.20
2022-08-19T06:24:56.626Z,19.30
2022-08-19T06:27:23.924Z,19.40
2022-08-19T06:29:51.227Z,19.40
2022-08-19T06:32:19.830Z,19.50
2022-08-19T06:34:47.079Z,19.60
2022-08-19T06:37:14.901Z,19.60
2022-08-19T06:39:44.111Z,19.60
2022-08-19T06:42:17.242Z,19.60
2022-08-19T06:44:48.834Z,19.60
2022-08-19T06:47:23.473Z,19.60
2022-08-19T06:49:55.050Z,19.70
2022-08-19T06:52:27.879Z,19.70
2022-08-19T06:54:57.208Z,19.70
2022-08-19T06:57:27.417Z,19.70
2022-08-19T06:59:54.267Z,19.70
2022-08-19T07:02:21.991Z,19.70
2022-08-19T07:04:52.597Z,19.80
2022-08-19T07:07:22.061Z,19.80
2022-08-19T07:09:51.842Z,19.80
2022-08-19T07:12:33.928Z,19.80
2022-08-19T07:15:04.913Z,19.80
2022-08-19T07:17:34.583Z,19.80
2022-08-19T07:20:05.516Z,19.80
2022-08-19T07:22:37.268Z,19.80
2022-08-19T07:25:05.077Z,19.80
2022-08-19T07:27:33.677Z,19.80
2022-08-19T07:30:01.743Z,19.80
2022-08-19T07:32:28.978Z,19.80
2022-08-19T07:34:56.781Z,19.70
2022-08-19T07:37:32.533Z,19.70
2022-08-19T07:40:00.104Z,19.70
2022-08-19T07:42:27.669Z,19.70
2022-08-19T07:44:54.687Z,19.70
2022-08-19T07:47:58.509Z,19.60
2022-08-19T07:50:12.307Z,19.60
2022-08-19T07:52:40.559Z,19.70
2022-08-19T07:55:39.842Z,19.70
2022-08-19T07:57:56.323Z,19.70
2022-08-19T08:00:24.443Z,19.70
2022-08-19T08:02:52.943Z,19.70
2022-08-19T08:05:43.646Z,19.70
2022-08-19T08:08:31.098Z,19.70
2022-08-19T08:11:00.035Z,19.70
2022-08-19T08:13:28.189Z,19.70
2022-08-19T08:15:56.558Z,19.70
2022-08-19T08:18:28.141Z,19.60
2022-08-19T08:20:58.757Z,19.70
2022-08-19T08:23:27.366Z,19.70
2022-08-19T08:25:58.950Z,19.70
2022-08-19T08:28:29.685Z,19.80
2022-08-19T08:30:58.265Z,19.80
2022-08-19T08:33:33.205Z,19.90
2022-08-19T08:36:09.154Z,20.00
2022-08-19T08:38:41.600Z,19.90
2022-08-19T08:41:32.937Z,20.00
2022-08-19T08:44:00.490Z,20.00
2022-08-19T08:46:46.499Z,20.10
2022-08-19T08:49:37.320Z,20.10
2022-08-19T08:52:31.863Z,20.10
2022-08-19T08:55:10.140Z,20.10
2022-08-19T08:57:56.400Z,20.00
2022-08-19T09:00:30.710Z,19.90
2022-08-19T09:02:59.294Z,19.90
2022-08-19T09:05:42.181Z,19.80
2022-08-19T09:08:33.948Z,19.80
2022-08-19T09:11:05.868Z,19.80
2022-08-19T09:13:46.727Z,19.70
2022-08-19T09:16:18.230Z,19.70
2022-08-19T09:19:01.841Z,19.80
2022-08-19T09:21:33.102Z,19.70
2022-08-19T09:24:03.622Z,19.80
2022-08-19T09:26:47.451Z,19.90
2022-08-19T09:29:20.094Z,20.00
2022-08-19T09:31:50.528Z,20.00
2022-08-19T09:34:21.541Z,20.00
2022-08-19T09:36:54.628Z,20.00
2022-08-19T09:39:21.919Z,19.90
2022-08-19T09:41:49.361Z,20.00
2022-08-19T09:44:16.974Z,19.90
2022-08-19T09:46:45.182Z,19.90
2022-08-19T09:49:11.988Z,19.90
2022-08-19T09:51:40.397Z,19.90
2022-08-19T09:54:11.325Z,19.90
2022-08-19T09:56:38.406Z,19.80
2022-08-19T09:59:05.379Z,19.80
2022-08-19T10:01:33.576Z,19.70
2022-08-19T10:04:07.595Z,19.70
2022-08-19T10:06:46.486Z,19.80
2022-08-19T10:09:15.810Z,19.80
2022-08-19T10:11:52.538Z,19.70
2022-08-19T10:14:23.514Z,19.70
2022-08-19T10:16:51.716Z,19.70
2022-08-19T10:19:25.777Z,19.70
2022-08-19T10:21:54.305Z,19.70
2022-08-19T10:24:25.422Z,19.70
2022-08-19T10:26:55.809Z,19.60
2022-08-19T10:29:32.684Z,19.60
2022-08-19T10:32:09.386Z,19.60
2022-08-19T10:34:48.919Z,19.70
2022-08-19T10:37:18.051Z,19.70
2022-08-19T10:39:51.510Z,19.70
2022-08-19T10:42:19.589Z,19.60
2022-08-19T10:44:47.729Z,19.70
2022-08-19T10:47:17.631Z,19.80
2022-08-19T10:50:12.094Z,19.80
2022-08-19T10:52:49.095Z,19.80
2022-08-19T10:55:37.973Z,19.80
2022-08-19T10:58:05.954Z,19.80
2022-08-19T11:00:33.596Z,20.00
2022-08-19T11:03:00.558Z,20.00
2022-08-19T11:05:27.537Z,20.10
2022-08-19T11:07:54.568Z,20.20
2022-08-19T11:10:22.173Z,20.30
2022-08-19T11:12:55.220Z,20.20
2022-08-19T11:15:22.427Z,20.10
2022-08-19T11:17:49.198Z,20.20
2022-08-19T11:20:16.451Z,20.20
2022-08-19T11:22:43.664Z,20.20
2022-08-19T11:25:12.069Z,20.30
2022-08-19T11:27:42.852Z,20.40
2022-08-19T11:30:13.130Z,20.40
2022-08-19T11:32:48.728Z,20.50
2022-08-19T11:35:17.110Z,20.60
2022-08-19T11:37:43.970Z,20.60
2022-08-19T11:40:11.493Z,20.60
2022-08-19T11:42:57.190Z,20.50
2022-08-19T11:45:29.009Z,20.60
2022-08-19T11:47:56.554Z,20.60
2022-08-19T11:50:24.532Z,20.60
2022-08-19T11:52:55.009Z,20.50
2022-08-19T11:55:21.938Z,20.50
2022-08-19T11:57:49.194Z,20.40
2022-08-19T12:00:16.316Z,20.40
2022-08-19T12:02:43.654Z,20.40
2022-08-19T12:05:12.935Z,20.40
2022-08-19T12:07:41.968Z,20.20
2022-08-19T12:10:09.462Z,20.10
2022-08-19T12:12:41.391Z,20.00
2022-08-19T12:15:09.003Z,19.90
2022-08-19T12:17:36.001Z,19.90
2022-08-19T12:20:03.308Z,19.90
2022-08-19T12:22:30.063Z,19.80
2022-08-19T12:24:57.023Z,19.80
2022-08-19T12:27:32.331Z,19.80
2022-08-19T12:30:11.085Z,19.80
2022-08-19T12:32:38.861Z,19.70
2022-08-19T12:35:06.532Z,19.60
2022-08-19T12:37:33.431Z,19.50
2022-08-19T12:40:00.547Z,19.60
2022-08-19T12:42:27.781Z,19.60
2022-08-19T12:44:54.625Z,19.60
2022-08-19T12:47:22.123Z,19.50
2022-08-19T12:49:53.548Z,19.60
2022-08-19T12:52:23.718Z,19.60
2022-08-19T12:54:53.797Z,19.70
2022-08-19T12:57:32.089Z,19.80
2022-08-19T13:00:22.069Z,19.80
2022-08-19T13:02:52.820Z,19.90
2022-08-19T13:05:23.637Z,19.90
2022-08-19T13:07:52.150Z,20.00
2022-08-19T13:10:21.234Z,19.90
2022-08-19T13:12:50.240Z,19.90
2022-08-19T13:15:25.859Z,19.90
2022-08-19T13:17:54.895Z,19.90
2022-08-19T13:20:23.000Z,19.90
2022-08-19T13:22:49.864Z,19.80
2022-08-19T13:25:18.707Z,19.80
2022-08-19T13:27:45.879Z,19.80
2022-08-19T13:30:33.545Z,19.80
2022-08-19T13:33:12.184Z,19.80
2022-08-19T13:35:42.211Z,19.80
2022-08-19T13:38:11.866Z,19.80
2022-08-19T13:40:41.230Z,19.70
2022-08-19T13:43:13.489Z,19.60
2022-08-19T13:45:54.743Z,19.50
2022-08-19T13:48:21.794Z,19.60
2022-08-19T13:50:49.102Z,19.60
2022-08-19T13:53:17.105Z,19.50
2022-08-19T13:55:44.707Z,19.70
2022-08-19T13:58:12.623Z,19.80
2022-08-19T14:00:46.257Z,20.00
2022-08-19T14:03:13.224Z,19.90
2022-08-19T14:05:40.106Z,20.00
2022-08-19T14:08:07.000Z,20.00
2022-08-19T14:10:34.438Z,20.00
2022-08-19T14:13:03.543Z,20.00
2022-08-19T14:15:31.223Z,20.00
2022-08-19T14:17:58.606Z,19.90
2022-08-19T14:20:26.246Z,19.90
2022-08-19T14:22:54.177Z,19.90
2022-08-19T14:25:25.482Z,19.90
2022-08-19T14:27:52.552Z,20.00
2022-08-19T14:30:23.771Z,20.00
2022-08-19T14:32:50.821Z,20.20
2022-08-19T14:35:19.003Z,20.20
2022-08-19T14:37:47.403Z,20.10
2022-08-19T14:40:17.061Z,20.10
2022-08-19T14:42:44.918Z,20.10
2022-08-19T14:45:12.634Z,20.20
2022-08-19T14:47:40.868Z,20.10
2022-08-19T14:50:10.496Z,20.20
2022-08-19T14:52:38.950Z,20.10
2022-08-19T14:55:07.653Z,20.10
2022-08-19T14:57:35.020Z,20.00
2022-08-19T15:00:01.984Z,20.00
2022-08-19T15:02:34.666Z,20.00
2022-08-19T15:05:02.885Z,20.10
2022-08-19T15:07:30.419Z,20.10
2022-08-19T15:09:58.146Z,20.20
2022-08-19T15:12:25.555Z,20.30
2022-08-19T15:14:56.277Z,20.40
2022-08-19T15:17:28.059Z,20.50
2022-08-19T15:20:13.548Z,20.50
2022-08-19T15:22:41.073Z,20.50
2022-08-19T15:25:10.051Z,20.60
2022-08-19T15:27:40.709Z,20.70
2022-08-19T15:30:09.512Z,20.60
2022-08-19T15:32:37.285Z,20.70
2022-08-19T15:35:06.319Z,20.80
2022-08-19T15:37:37.043Z,20.90
2022-08-19T15:40:06.128Z,20.90
2022-08-19T15:42:34.084Z,20.80
2022-08-19T15:45:02.325Z,20.90
2022-08-19T15:47:35.420Z,20.90
2022-08-19T15:50:29.841Z,20.80
2022-08-19T15:53:02.370Z,20.80
2022-08-19T15:55:34.654Z,20.70
2022-08-19T15:58:21.844Z,20.80
2022-08-19T16:01:20.437Z,20.80
2022-08-19T16:04:13.889Z,20.90
2022-08-19T16:06:49.027Z,21.00
2022-08-19T16:09:17.262Z,21.20
2022-08-19T16:11:46.415Z,21.30
2022-08-19T16:14:15.922Z,21.50
2022-08-19T16:16:46.680Z,21.50
2022-08-19T16:19:17.203Z,21.60
2022-08-19T16:21:48.049Z,21.80
2022-08-19T16:24:17.621Z,21.90
2022-08-19T16:26:45.450Z,22.00
2022-08-19T16:29:12.956Z,22.00
2022-08-19T16:31:42.233Z,21.90
2022-08-19T16:34:09.916Z,21.90
2022-08-19T16:36:40.776Z,22.00
2022-08-19T16:39:12.401Z,22.00
2022-08-19T16:41:40.987Z,22.10
2022-08-19T16:44:10.471Z,22.30
2022-08-19T16:46:39.078Z,22.40
2022-08-19T16:49:08.045Z,22.50
2022-08-19T16:51:35.471Z,22.50
2022-08-19T16:54:03.545Z,22.50
2022-08-19T16:56:30.640Z,22.40
2022-08-19T16:58:59.888Z,22.40
2022-08-19T17:01:27.538Z,22.40
2022-08-19T17:03:55.377Z,22.30
2022-08-19T17:06:29.722Z,22.20
2022-08-19T17:08:58.954Z,22.10
2022-08-19T17:11:27.888Z,22.10
2022-08-19T17:13:55.719Z,22.00
2022-08-19T17:16:26.266Z,22.00
2022-08-19T17:18:54.999Z,22.00
2022-08-19T17:21:25.451Z,21.90
2022-08-19T17:23:52.295Z,21.90
2022-08-19T17:26:19.226Z,21.70
2022-08-19T17:28:51.038Z,21.60
2022-08-19T17:31:21.118Z,21.50
2022-08-19T17:33:48.500Z,21.50
2022-08-19T17:36:23.453Z,21.50
2022-08-19T17:38:55.417Z,21.60
2022-08-19T17:41:24.267Z,21.50
2022-08-19T17:43:51.612Z,21.30
2022-08-19T17:46:19.516Z,21.20
2022-08-19T17:48:52.699Z,21.10
2022-08-19T17:51:42.159Z,21.00
2022-08-19T17:54:12.546Z,21.00
2022-08-19T17:56:39.449Z,21.00
2022-08-19T17:59:11.781Z,21.00
2022-08-19T18:01:53.916Z,21.10
2022-08-19T18:04:25.570Z,21.00
2022-08-19T18:06:54.918Z,21.00
2022-08-19T18:09:25.131Z,21.10
2022-08-19T18:11:53.852Z,21.00
2022-08-19T18:14:33.277Z,21.10
2022-08-19T18:17:10.245Z,21.10
2022-08-19T18:19:43.261Z,21.30
2022-08-19T18:22:39.633Z,21.20
2022-08-19T18:25:24.122Z,21.10
2022-08-19T18:27:53.423Z,21.10
2022-08-19T18:30:22.294Z,21.00
2022-08-19T18:32:52.771Z,20.90
2022-08-19T18:35:29.611Z,21.00
2022-08-19T18:37:58.974Z,21.00
2022-08-19T18:41:02.605Z,20.90
2022-08-19T18:43:47.901Z,20.80
2022-08-19T18:46:36.969Z,20.80
2022-08-19T18:49:05.211Z,20.70
2022-08-19T18:51:32.727Z,20.80
2022-08-19T18:53:59.809Z,20.80
2022-08-19T18:56:29.329Z,20.70
2022-08-19T18:58:58.930Z,20.60
2022-08-19T19:01:30.824Z,20.60
2022-08-19T19:04:04.989Z,20.50
2022-08-19T19:06:39.639Z,20.50
2022-08-19T19:09:09.710Z,20.40
2022-08-19T19:11:39.058Z,20.40
2022-08-19T19:14:19.209Z,20.40
2022-08-19T19:16:59.281Z,20.40
2022-08-19T19:19:26.569Z,20.40
2022-08-19T19:21:53.362Z,20.30
2022-08-19T19:24:23.182Z,20.40
2022-08-19T19:26:52.183Z,20.30
2022-08-19T19:29:20.154Z,20.30
2022-08-19T19:31:48.096Z,20.30
2022-08-19T19:34:29.109Z,20.20
2022-08-19T19:36:57.080Z,20.20
2022-08-19T19:39:44.811Z,20.30
2022-08-19T19:42:19.620Z,20.20
2022-08-19T19:44:50.461Z,20.20
2022-08-19T19:47:19.001Z,20.20
2022-08-19T19:50:12.563Z,20.10
2022-08-19T19:52:34.715Z,20.00
2022-08-19T19:55:01.612Z,20.00
2022-08-19T19:57:30.489Z,20.00
2022-08-19T19:59:57.563Z,20.00
2022-08-19T20:02:25.406Z,19.90
2022-08-19T20:04:52.667Z,20.00
2022-08-19T20:07:40.064Z,20.00
2022-08-19T20:10:07.247Z,19.90
2022-08-19T20:12:34.792Z,20.00
2022-08-19T20:15:01.818Z,19.90
2022-08-19T20:17:28.637Z,19.90
2022-08-19T20:19:57.530Z,19.80
2022-08-19T20:22:26.111Z,19.80
2022-08-19T20:24:55.755Z,19.80
2022-08-19T20:27:25.739Z,19.90
2022-08-19T20:29:53.431Z,19.90
2022-08-19T20:32:20.271Z,19.90
2022-08-19T20:34:49.152Z,19.90
2022-08-19T20:37:16.143Z,19.80
2022-08-19T20:39:42.995Z,19.80
2022-08-19T20:42:09.956Z,19.80
2022-08-19T20:44:37.792Z,19.90
2022-08-19T20:47:04.827Z,19.90
2022-08-19T20:49:32.375Z,20.00
2022-08-19T20:51:59.238Z,19.90
2022-08-19T20:54:27.019Z,19.80
2022-08-19T20:56:54.319Z,19.70
2022-08-19T20:59:21.869Z,19.80
2022-08-19T21:01:51.891Z,19.70
2022-08-19T21:04:20.245Z,19.70
2022-08-19T21:06:47.833Z,19.70
2022-08-19T21:09:14.769Z,19.60
2022-08-19T21:11:41.572Z,19.60
2022-08-19T21:14:08.755Z,19.70
2022-08-19T21:16:35.677Z,19.50
2022-08-19T21:19:02.445Z,19.50
2022-08-19T21:21:29.366Z,19.60
2022-08-19T21:23:56.253Z,19.50
2022-08-19T21:26:24.314Z,19.50
2022-08-19T21:28:51.166Z,19.50
2022-08-19T21:31:18.050Z,19.50
2022-08-19T21:33:44.896Z,19.50
2022-08-19T21:36:11.830Z,19.60
2022-08-19T21:38:38.734Z,19.60
2022-08-19T21:41:07.078Z,19.60
2022-08-19T21:43:36.210Z,19.50
2022-08-19T21:46:03.645Z,19.60
2022-08-19T21:48:30.549Z,19.60
2022-08-19T21:50:57.287Z,19.60
2022-08-19T21:53:24.226Z,19.60
2022-08-19T21:55:53.661Z,19.60
2022-08-19T21:58:28.362Z,19.60
2022-08-19T22:00:58.993Z,19.60
2022-08-19T22:03:26.439Z,19.60
2022-08-19T22:05:53.532Z,19.60
2022-08-19T22:08:20.394Z,19.70
2022-08-19T22:10:49.076Z,19.70
2022-08-19T22:13:17.404Z,19.70
2022-08-19T22:15:45.685Z,19.70
2022-08-19T22:18:13.787Z,19.70
2022-08-19T22:20:40.662Z,19.80
2022-08-19T22:23:08.108Z,19.70
2022-08-19T22:25:39.541Z,19.70
2022-08-19T22:28:10.949Z,19.60
2022-08-19T22:30:39.909Z,19.70
2022-08-19T22:33:12.497Z,19.70
2022-08-19T22:35:41.439Z,19.80
2022-08-19T22:38:09.580Z,19.80
2022-08-19T22:40:39.709Z,19.70
2022-08-19T22:43:10.468Z,19.80
2022-08-19T22:45:37.958Z,19.80
2022-08-19T22:48:07.958Z,19.80
2022-08-19T22:50:36.524Z,19.80
2022-08-19T22:53:06.227Z,19.80
2022-08-19T22:55:34.991Z,19.80
2022-08-19T22:58:01.765Z,19.60
2022-08-19T23:00:29.283Z,19.50
2022-08-19T23:02:57.824Z,19.60
2022-08-19T23:05:27.684Z,19.60
2022-08-19T23:07:57.432Z,19.60
2022-08-19T23:10:27.582Z,19.70
2022-08-19T23:12:57.136Z,19.60
2022-08-19T23:15:26.668Z,19.60
2022-08-19T23:17:56.133Z,19.60
2022-08-19T23:20:27.247Z,19.70
2022-08-19T23:22:55.325Z,19.70
2022-08-19T23:25:26.289Z,19.70
2022-08-19T23:28:11.532Z,19.70
2022-08-19T23:30:43.677Z,19.70
2022-08-19T23:33:24.574Z,19.70
2022-08-19T23:35:53.990Z,19.70
2022-08-19T23:38:23.322Z,19.70
2022-08-19T23:40:57.276Z,19.70
2022-08-19T23:43:25.375Z,19.80
2022-08-19T23:45:57.387Z,19.70
2022-08-19T23:48:26.088Z,19.60
2022-08-19T23:50:56.523Z,19.60
2022-08-19T23:53:23.722Z,19.70
2022-08-19T23:55:50.576Z,19.70
2022-08-19T23:58:18.368Z,19.60
